PWSweather.com
Personal Weather Stations
Station Observations
WODONGA
Wodonga, WodongaAU 3690

WodongaWodongaAU 3690

Lat: -36.121, Lon: 146.87

Elevation: 541

Station Type: Weather Station

http://www.wodongaweather.net

Latest ConditionsUpdated 4:40:02 AM GMT+10:10 Sunday, Aug 28, 2016
Currently Today's Max Today's Min Today's Average
Temperature 37.8°F3.2°C 43.9°F6.6°C 37.8°F3.2°C 40.3°F4.6°C
Dew Point 35.1°F1.7°C 39.4°F4.1°C 35.1°F1.7°C 37.1°F2.8°C
Winds Calm Calm 1.8 mph S2.9 kmh S - 0.7 mph 1.1 kmh
Wind Gusts -- 2.2 mph3.5 kmh - -
Humidity 90% 90% 84% 88%
Pressure 30.20 in1022.7 mb 30.21 in1023.0 mb 30.18 in1022.0 mb -
Hour Temp Dew Point Humidity Winds Wind Gusts Pressure Precip Precip Rate Daily Precip Total
04:40 AM 37.8°F3.2°C 35.1°F1.7°C 90% Calm Calm -- 30.20 in1022.7 mb 0.00 in0.0 mm 0.00 in0.0 mm 0.00 in0.0 mm
04:35 AM 37.8°F3.2°C 35.1°F1.7°C 90% Calm Calm -- 30.19 in1022.4 mb 0.00 in0.0 mm 0.00 in0.0 mm 0.00 in0.0 mm
04:30 AM 37.9°F3.3°C 35.3°F1.8°C 90% Calm Calm -- 30.19 in1022.4 mb 0.00 in0.0 mm 0.00 in0.0 mm 0.00 in0.0 mm
04:25 AM 38.1°F3.4°C 35.5°F1.9°C 90% Calm Calm -- 30.19 in1022.4 mb 0.00 in0.0 mm 0.00 in0.0 mm 0.00 in0.0 mm
04:20 AM 38.1°F3.4°C 35.5°F1.9°C 90% 0.2 mph S0.3 kmh S 0.7 mph1.1 kmh 30.19 in1022.4 mb 0.00 in0.0 mm 0.00 in0.0 mm 0.00 in0.0 mm
04:15 AM 38.1°F3.4°C 35.5°F1.9°C 90% 0.7 mph S1.1 kmh S 1.6 mph2.6 kmh 30.19 in1022.4 mb 0.00 in0.0 mm 0.00 in0.0 mm 0.00 in0.0 mm
04:10 AM 38.3°F3.5°C 35.6°F2.0°C 90% 1.4 mph S2.3 kmh S 2.2 mph3.5 kmh 30.19 in1022.4 mb 0.00 in0.0 mm 0.00 in0.0 mm 0.00 in0.0 mm
04:05 AM 38.3°F3.5°C 35.6°F2.0°C 90% 1.3 mph S2.1 kmh S 2.2 mph3.5 kmh 30.18 in1022.0 mb 0.00 in0.0 mm 0.00 in0.0 mm 0.00 in0.0 mm
04:00 AM 38.3°F3.5°C 35.6°F2.0°C 90% 0.7 mph S1.1 kmh S 2.2 mph3.5 kmh 30.19 in1022.4 mb 0.00 in0.0 mm 0.00 in0.0 mm 0.00 in0.0 mm
03:55 AM 38.5°F3.6°C 35.8°F2.1°C 90% 0.9 mph SSE1.4 kmh SSE 2.2 mph3.5 kmh 30.19 in1022.4 mb 0.00 in0.0 mm 0.00 in0.0 mm 0.00 in0.0 mm
03:50 AM 38.5°F3.6°C 35.8°F2.1°C 90% 1.0 mph SSE1.6 kmh SSE 2.2 mph3.5 kmh 30.18 in1022.0 mb 0.00 in0.0 mm 0.00 in0.0 mm 0.00 in0.0 mm
03:45 AM 38.7°F3.7°C 36.0°F2.2°C 90% 1.0 mph S1.6 kmh S 1.6 mph2.6 kmh 30.18 in1022.0 mb 0.00 in0.0 mm 0.00 in0.0 mm 0.00 in0.0 mm
03:40 AM 38.7°F3.7°C 36.0°F2.2°C 90% 0.8 mph SSW1.3 kmh SSW 1.6 mph2.6 kmh 30.18 in1022.0 mb 0.00 in0.0 mm 0.00 in0.0 mm 0.00 in0.0 mm
03:35 AM 38.7°F3.7°C 35.7°F2.1°C 89% 0.6 mph SW1.0 kmh SW 1.6 mph2.6 kmh 30.18 in1022.0 mb 0.00 in0.0 mm 0.00 in0.0 mm 0.00 in0.0 mm
03:30 AM 38.7°F3.7°C 35.7°F2.1°C 89% 0.7 mph SW1.1 kmh SW 1.6 mph2.6 kmh 30.18 in1022.0 mb 0.00 in0.0 mm 0.00 in0.0 mm 0.00 in0.0 mm
03:25 AM 38.7°F3.7°C 35.7°F2.1°C 89% 1.0 mph SW1.6 kmh SW 1.6 mph2.6 kmh 30.18 in1022.0 mb 0.00 in0.0 mm 0.00 in0.0 mm 0.00 in0.0 mm
03:20 AM 38.8°F3.8°C 35.9°F2.2°C 89% 0.6 mph SW1.0 kmh SW 1.6 mph2.6 kmh 30.18 in1022.0 mb 0.00 in0.0 mm 0.00 in0.0 mm 0.00 in0.0 mm
03:15 AM 39.0°F3.9°C 36.1°F2.3°C 89% 0.1 mph SW0.2 kmh SW 0.7 mph1.1 kmh 30.18 in1022.0 mb 0.00 in0.0 mm 0.00 in0.0 mm 0.00 in0.0 mm
03:10 AM 39.0°F3.9°C 36.1°F2.3°C 89% Calm Calm -- 30.19 in1022.4 mb 0.00 in0.0 mm 0.00 in0.0 mm 0.00 in0.0 mm
03:05 AM 39.2°F4.0°C 36.2°F2.3°C 89% 0.1 mph SW0.2 kmh SW 1.6 mph2.6 kmh 30.19 in1022.4 mb 0.00 in0.0 mm 0.00 in0.0 mm 0.00 in0.0 mm
03:00 AM 39.2°F4.0°C 36.2°F2.3°C 89% 0.9 mph S1.4 kmh S 2.2 mph3.5 kmh 30.19 in1022.4 mb 0.00 in0.0 mm 0.00 in0.0 mm 0.00 in0.0 mm
02:55 AM 39.2°F4.0°C 36.2°F2.3°C 89% 1.8 mph S2.9 kmh S 2.2 mph3.5 kmh 30.19 in1022.4 mb 0.00 in0.0 mm 0.00 in0.0 mm 0.00 in0.0 mm
02:50 AM 39.4°F4.1°C 36.4°F2.4°C 89% 1.8 mph S2.9 kmh S 2.2 mph3.5 kmh 30.19 in1022.4 mb 0.00 in0.0 mm 0.00 in0.0 mm 0.00 in0.0 mm
02:45 AM 39.4°F4.1°C 36.4°F2.4°C 89% 1.6 mph S2.6 kmh S 2.2 mph3.5 kmh 30.19 in1022.4 mb 0.00 in0.0 mm 0.00 in0.0 mm 0.00 in0.0 mm
02:40 AM 39.6°F4.2°C 36.6°F2.6°C 89% 1.4 mph S2.3 kmh S 1.6 mph2.6 kmh 30.19 in1022.4 mb 0.00 in0.0 mm 0.00 in0.0 mm 0.00 in0.0 mm
02:35 AM 39.6°F4.2°C 36.6°F2.6°C 89% 1.1 mph S1.8 kmh S 1.6 mph2.6 kmh 30.19 in1022.4 mb 0.00 in0.0 mm 0.00 in0.0 mm 0.00 in0.0 mm
02:30 AM 39.7°F4.3°C 36.8°F2.7°C 89% 1.1 mph S1.8 kmh S 1.6 mph2.6 kmh 30.19 in1022.4 mb 0.00 in0.0 mm 0.00 in0.0 mm 0.00 in0.0 mm
02:25 AM 39.7°F4.3°C 36.8°F2.7°C 89% 0.8 mph S1.3 kmh S 1.6 mph2.6 kmh 30.19 in1022.4 mb 0.00 in0.0 mm 0.00 in0.0 mm 0.00 in0.0 mm
02:20 AM 39.7°F4.3°C 36.8°F2.7°C 89% 0.7 mph S1.1 kmh S 1.6 mph2.6 kmh 30.20 in1022.7 mb 0.00 in0.0 mm 0.00 in0.0 mm 0.00 in0.0 mm
02:15 AM 39.9°F4.4°C 36.9°F2.7°C 89% 0.8 mph S1.3 kmh S 1.6 mph2.6 kmh 30.20 in1022.7 mb 0.00 in0.0 mm 0.00 in0.0 mm 0.00 in0.0 mm
02:10 AM 40.1°F4.5°C 37.1°F2.8°C 89% 0.6 mph SSW1.0 kmh SSW 1.6 mph2.6 kmh 30.20 in1022.7 mb 0.00 in0.0 mm 0.00 in0.0 mm 0.00 in0.0 mm
02:05 AM 40.3°F4.6°C 37.0°F2.8°C 88% 0.8 mph SSW1.3 kmh SSW 1.6 mph2.6 kmh 30.20 in1022.7 mb 0.00 in0.0 mm 0.00 in0.0 mm 0.00 in0.0 mm
02:00 AM 40.5°F4.7°C 37.2°F2.9°C 88% 0.8 mph SSW1.3 kmh SSW 1.6 mph2.6 kmh 30.20 in1022.7 mb 0.00 in0.0 mm 0.00 in0.0 mm 0.00 in0.0 mm
01:55 AM 40.5°F4.7°C 37.2°F2.9°C 88% 1.0 mph SSW1.6 kmh SSW 1.6 mph2.6 kmh 30.20 in1022.7 mb 0.00 in0.0 mm 0.00 in0.0 mm 0.00 in0.0 mm
01:50 AM 40.6°F4.8°C 37.4°F3.0°C 88% 1.1 mph S1.8 kmh S 1.6 mph2.6 kmh 30.20 in1022.7 mb 0.00 in0.0 mm 0.00 in0.0 mm 0.00 in0.0 mm
01:45 AM 40.8°F4.9°C 37.5°F3.1°C 88% 0.9 mph S1.4 kmh S 1.6 mph2.6 kmh 30.21 in1023.0 mb 0.00 in0.0 mm 0.00 in0.0 mm 0.00 in0.0 mm
01:40 AM 41.0°F5.0°C 37.7°F3.2°C 88% 0.7 mph S1.1 kmh S 1.6 mph2.6 kmh 30.21 in1023.0 mb 0.00 in0.0 mm 0.00 in0.0 mm 0.00 in0.0 mm
01:35 AM 41.2°F5.1°C 37.9°F3.3°C 88% 1.1 mph S1.8 kmh S 1.6 mph2.6 kmh 30.21 in1023.0 mb 0.00 in0.0 mm 0.00 in0.0 mm 0.00 in0.0 mm
01:30 AM 41.4°F5.2°C 38.1°F3.4°C 88% 1.2 mph S1.9 kmh S 1.6 mph2.6 kmh 30.21 in1023.0 mb 0.00 in0.0 mm 0.00 in0.0 mm 0.00 in0.0 mm
01:25 AM 41.4°F5.2°C 37.8°F3.2°C 87% 0.7 mph S1.1 kmh S 1.6 mph2.6 kmh 30.21 in1023.0 mb 0.00 in0.0 mm 0.00 in0.0 mm 0.00 in0.0 mm
01:20 AM 41.5°F5.3°C 38.0°F3.3°C 87% 0.4 mph SW0.6 kmh SW 1.6 mph2.6 kmh 30.21 in1023.0 mb 0.00 in0.0 mm 0.00 in0.0 mm 0.00 in0.0 mm
01:15 AM 41.7°F5.4°C 38.1°F3.4°C 87% 0.5 mph SSW0.8 kmh SSW 0.7 mph1.1 kmh 30.20 in1022.7 mb 0.00 in0.0 mm 0.00 in0.0 mm 0.00 in0.0 mm
01:10 AM 41.9°F5.5°C 38.3°F3.5°C 87% 0.5 mph S0.8 kmh S 0.7 mph1.1 kmh 30.21 in1023.0 mb 0.00 in0.0 mm 0.00 in0.0 mm 0.00 in0.0 mm
01:05 AM 41.9°F5.5°C 38.0°F3.3°C 86% 0.5 mph S0.8 kmh S 1.6 mph2.6 kmh 30.21 in1023.0 mb 0.00 in0.0 mm 0.00 in0.0 mm 0.00 in0.0 mm
01:00 AM 42.3°F5.7°C 38.4°F3.6°C 86% 0.3 mph S0.5 kmh S 1.6 mph2.6 kmh 30.21 in1023.0 mb 0.00 in0.0 mm 0.00 in0.0 mm 0.00 in0.0 mm
12:55 AM 42.4°F5.8°C 38.6°F3.7°C 86% Calm Calm -- 30.21 in1023.0 mb 0.00 in0.0 mm 0.00 in0.0 mm 0.00 in0.0 mm
12:50 AM 42.4°F5.8°C 38.6°F3.7°C 86% Calm Calm -- 30.21 in1023.0 mb 0.00 in0.0 mm 0.00 in0.0 mm 0.00 in0.0 mm
12:45 AM 42.6°F5.9°C 38.7°F3.7°C 86% Calm Calm -- 30.21 in1023.0 mb 0.00 in0.0 mm 0.00 in0.0 mm 0.00 in0.0 mm
12:40 AM 42.8°F6.0°C 38.9°F3.8°C 86% Calm Calm -- 30.21 in1023.0 mb 0.00 in0.0 mm 0.00 in0.0 mm 0.00 in0.0 mm
12:35 AM 42.8°F6.0°C 38.9°F3.8°C 86% 0.1 mph SW0.2 kmh SW 0.7 mph1.1 kmh 30.21 in1023.0 mb 0.00 in0.0 mm 0.00 in0.0 mm 0.00 in0.0 mm
12:30 AM 42.8°F6.0°C 38.9°F3.8°C 86% 0.3 mph SSW0.5 kmh SSW 0.7 mph1.1 kmh 30.21 in1023.0 mb 0.00 in0.0 mm 0.00 in0.0 mm 0.00 in0.0 mm
12:25 AM 43.0°F6.1°C 39.1°F3.9°C 86% 0.5 mph SW0.8 kmh SW 0.7 mph1.1 kmh 30.21 in1023.0 mb 0.00 in0.0 mm 0.00 in0.0 mm 0.00 in0.0 mm
12:20 AM 43.0°F6.1°C 38.8°F3.8°C 85% 0.9 mph SW1.4 kmh SW 1.6 mph2.6 kmh 30.21 in1023.0 mb 0.00 in0.0 mm 0.00 in0.0 mm 0.00 in0.0 mm
12:15 AM 43.2°F6.2°C 39.0°F3.9°C 85% 1.3 mph S2.1 kmh S 1.6 mph2.6 kmh 30.21 in1023.0 mb 0.00 in0.0 mm 0.00 in0.0 mm 0.00 in0.0 mm
12:10 AM 43.5°F6.4°C 39.0°F3.9°C 84% 1.5 mph SSE2.4 kmh SSE 2.2 mph3.5 kmh 30.21 in1023.0 mb 0.00 in0.0 mm 0.00 in0.0 mm 0.00 in0.0 mm
12:05 AM 43.7°F6.5°C 39.2°F4.0°C 84% 1.6 mph SE2.6 kmh SE 2.2 mph3.5 kmh 30.20 in1022.7 mb 0.00 in0.0 mm 0.00 in0.0 mm 0.00 in0.0 mm
12:00 AM 43.9°F6.6°C 39.4°F4.1°C 84% 1.6 mph SE2.6 kmh SE 2.2 mph3.5 kmh 30.21 in1023.0 mb 0.00 in0.0 mm 0.00 in0.0 mm 0.00 in0.0 mm